createdAt,value
2019-03-17T00:01:12.209Z,56.90
2019-03-17T00:03:40.522Z,57.14
2019-03-17T00:06:07.932Z,57.30
2019-03-17T00:08:34.538Z,57.81
2019-03-17T00:11:00.871Z,58.10
2019-03-17T00:13:27.598Z,58.75
2019-03-17T00:15:54.651Z,59.14
2019-03-17T00:18:21.285Z,59.10
2019-03-17T00:20:47.906Z,59.28
2019-03-17T00:23:14.262Z,59.19
2019-03-17T00:25:41.580Z,59.24
2019-03-17T00:28:07.882Z,59.66
2019-03-17T00:30:34.330Z,60.15
2019-03-17T00:33:00.639Z,60.72
2019-03-17T00:35:26.993Z,60.38
2019-03-17T00:37:53.657Z,60.92
2019-03-17T00:40:21.002Z,61.13
2019-03-17T00:42:47.318Z,61.65
2019-03-17T00:45:13.673Z,62.22
2019-03-17T00:47:40.359Z,62.50
2019-03-17T00:50:09.380Z,63.00
2019-03-17T00:52:35.748Z,63.36
2019-03-17T00:55:04.852Z,63.90
2019-03-17T00:57:31.492Z,64.31
2019-03-17T00:59:57.787Z,64.33
2019-03-17T01:02:26.462Z,64.41
2019-03-17T01:04:56.433Z,63.92
2019-03-17T01:07:21.919Z,64.43
2019-03-17T01:09:48.418Z,64.56
2019-03-17T01:12:15.207Z,64.98
2019-03-17T01:14:41.568Z,65.33
2019-03-17T01:17:07.872Z,65.45
2019-03-17T01:19:34.229Z,65.57
2019-03-17T01:22:00.852Z,65.91
2019-03-17T01:24:27.198Z,66.22
2019-03-17T01:26:53.901Z,66.59
2019-03-17T01:29:20.255Z,66.94
2019-03-17T01:31:46.587Z,66.73
2019-03-17T01:34:13.210Z,66.98
2019-03-17T01:36:39.916Z,67.21
2019-03-17T01:39:06.586Z,66.93
2019-03-17T01:41:32.916Z,67.72
2019-03-17T01:44:00.156Z,68.52
2019-03-17T01:46:26.805Z,68.92
2019-03-17T01:48:54.477Z,69.19
2019-03-17T01:51:21.045Z,69.75
2019-03-17T01:53:47.400Z,69.69
2019-03-17T01:56:13.904Z,69.78
2019-03-17T01:58:40.527Z,69.97
2019-03-17T02:01:07.150Z,70.00
2019-03-17T02:03:33.919Z,70.14
2019-03-17T02:06:00.259Z,70.36
2019-03-17T02:08:26.600Z,70.94
2019-03-17T02:10:53.150Z,70.70
2019-03-17T02:13:19.706Z,70.89
2019-03-17T02:15:46.051Z,71.20
2019-03-17T02:18:12.713Z,71.40
2019-03-17T02:20:39.045Z,71.50
2019-03-17T02:23:05.381Z,71.35
2019-03-17T02:25:32.004Z,71.59
2019-03-17T02:27:58.641Z,71.27
2019-03-17T02:30:24.951Z,71.37
2019-03-17T02:32:51.305Z,70.87
2019-03-17T02:35:17.630Z,70.74
2019-03-17T02:37:43.972Z,70.96
2019-03-17T02:40:10.316Z,71.01
2019-03-17T02:42:36.946Z,70.92
2019-03-17T02:45:07.391Z,70.68
2019-03-17T02:47:33.720Z,71.16
2019-03-17T02:50:00.509Z,71.40
2019-03-17T02:52:26.996Z,72.08
2019-03-17T02:54:53.361Z,72.14
2019-03-17T02:57:19.699Z,72.21
2019-03-17T02:59:46.015Z,72.15
2019-03-17T03:02:12.355Z,72.04
2019-03-17T03:04:39.933Z,71.50
2019-03-17T03:07:06.266Z,71.73
2019-03-17T03:09:33.605Z,71.77
2019-03-17T03:12:00.293Z,71.87
2019-03-17T03:14:26.690Z,71.74
2019-03-17T03:16:53.059Z,71.98
2019-03-17T03:19:19.392Z,71.95
2019-03-17T03:21:46.724Z,71.84
2019-03-17T03:24:13.379Z,71.96
2019-03-17T03:26:40.314Z,72.00
2019-03-17T03:29:06.615Z,72.32
2019-03-17T03:31:32.955Z,72.25
2019-03-17T03:33:59.263Z,71.90
2019-03-17T03:36:25.741Z,71.75
2019-03-17T03:38:52.036Z,72.00
2019-03-17T03:41:18.382Z,72.27
2019-03-17T03:43:44.717Z,71.84
2019-03-17T03:46:11.143Z,71.77
2019-03-17T03:48:37.473Z,71.94
2019-03-17T03:51:03.898Z,71.70
2019-03-17T03:53:30.234Z,71.92
2019-03-17T03:55:56.915Z,71.80
2019-03-17T03:58:23.284Z,71.55
2019-03-17T04:00:49.592Z,71.63
2019-03-17T04:03:16.227Z,71.16
2019-03-17T04:05:42.585Z,70.89
2019-03-17T04:08:08.927Z,70.87
2019-03-17T04:10:35.626Z,71.07
2019-03-17T04:13:01.930Z,71.05
2019-03-17T04:15:28.590Z,70.91
2019-03-17T04:17:54.910Z,70.96
2019-03-17T04:20:21.580Z,71.09
2019-03-17T04:22:47.931Z,70.89
2019-03-17T04:25:16.125Z,70.90
2019-03-17T04:27:42.840Z,71.23
2019-03-17T04:30:09.482Z,71.56
2019-03-17T04:32:35.816Z,71.67
2019-03-17T04:35:05.061Z,71.83
2019-03-17T04:37:31.382Z,72.12
2019-03-17T04:39:57.711Z,71.90
2019-03-17T04:42:24.070Z,72.58
2019-03-17T04:44:50.388Z,72.73
2019-03-17T04:47:16.786Z,72.62
2019-03-17T04:49:43.474Z,72.81
2019-03-17T04:52:10.319Z,72.46
2019-03-17T04:54:36.641Z,72.68
2019-03-17T04:57:03.015Z,72.19
2019-03-17T04:59:29.320Z,71.97
2019-03-17T05:01:55.977Z,71.75
2019-03-17T05:04:22.307Z,71.93
2019-03-17T05:06:52.905Z,71.96
2019-03-17T05:09:17.199Z,72.00
2019-03-17T05:11:43.823Z,71.83
2019-03-17T05:14:10.529Z,71.98
2019-03-17T05:16:37.205Z,71.92
2019-03-17T05:19:03.850Z,72.38
2019-03-17T05:21:30.233Z,72.48
2019-03-17T05:23:56.617Z,72.50
2019-03-17T05:26:23.465Z,72.75
2019-03-17T05:28:49.896Z,73.03
2019-03-17T05:31:16.263Z,73.00
2019-03-17T05:33:42.685Z,72.41
2019-03-17T05:36:09.313Z,72.38
2019-03-17T05:38:35.929Z,72.09
2019-03-17T05:41:02.251Z,71.75
2019-03-17T05:43:31.156Z,71.31
2019-03-17T05:45:57.510Z,70.80
2019-03-17T05:48:24.951Z,70.50
2019-03-17T05:50:51.679Z,70.08
2019-03-17T05:53:18.087Z,70.22
2019-03-17T05:55:44.748Z,69.96
2019-03-17T05:58:11.403Z,69.74
2019-03-17T06:00:38.036Z,69.35
2019-03-17T06:03:04.692Z,69.54
2019-03-17T06:05:31.431Z,69.15
2019-03-17T06:07:57.757Z,68.76
2019-03-17T06:10:24.093Z,68.77
2019-03-17T06:12:50.462Z,68.59
2019-03-17T06:15:17.169Z,68.81
2019-03-17T06:17:43.787Z,69.33
2019-03-17T06:20:11.631Z,69.13
2019-03-17T06:22:37.915Z,68.93
2019-03-17T06:25:07.280Z,68.53
2019-03-17T06:27:33.588Z,68.49
2019-03-17T06:30:00.387Z,68.03
2019-03-17T06:32:27.680Z,67.90
2019-03-17T06:34:54.418Z,67.60
2019-03-17T06:37:30.602Z,67.35
2019-03-17T06:39:50.089Z,66.80
2019-03-17T06:42:16.714Z,66.59
2019-03-17T06:44:43.049Z,66.00
2019-03-17T06:47:09.378Z,65.11
2019-03-17T06:49:35.813Z,64.77
2019-03-17T06:52:02.144Z,64.11
2019-03-17T06:54:28.478Z,63.45
2019-03-17T06:56:54.847Z,63.06
2019-03-17T06:59:21.228Z,62.65
2019-03-17T07:01:47.574Z,62.16
2019-03-17T07:04:13.932Z,61.27
2019-03-17T07:06:40.756Z,61.14
2019-03-17T07:09:07.106Z,59.75
2019-03-17T07:11:33.408Z,59.12
2019-03-17T07:13:59.761Z,59.14
2019-03-17T07:16:26.109Z,58.74
2019-03-17T07:18:52.734Z,57.78
2019-03-17T07:21:19.353Z,57.67
2019-03-17T07:23:45.660Z,56.41
2019-03-17T07:26:12.343Z,55.89
2019-03-17T07:28:38.657Z,55.00
2019-03-17T07:31:05.030Z,54.81
2019-03-17T07:33:31.586Z,54.00
2019-03-17T07:35:58.269Z,53.87
2019-03-17T07:38:24.648Z,52.92
2019-03-17T07:40:51.345Z,52.20
2019-03-17T07:43:17.675Z,51.00
2019-03-17T07:45:44.615Z,50.04
2019-03-17T07:48:11.645Z,49.46
2019-03-17T07:50:38.045Z,48.43
2019-03-17T07:53:04.405Z,48.01
2019-03-17T07:55:31.208Z,47.33
2019-03-17T07:57:58.023Z,47.43
2019-03-17T08:00:31.849Z,45.08
2019-03-17T08:02:52.697Z,44.67
2019-03-17T08:05:19.021Z,37.66
2019-03-17T08:07:45.427Z,38.33
2019-03-17T08:10:15.602Z,35.90
2019-03-17T08:12:42.086Z,33.90
2019-03-17T08:15:11.032Z,33.93
2019-03-17T08:17:37.421Z,32.29
2019-03-17T08:20:08.706Z,31.43
2019-03-17T08:22:35.340Z,30.59
2019-03-17T08:25:02.193Z,30.96
2019-03-17T08:27:28.520Z,29.59
2019-03-17T08:29:55.167Z,29.76
2019-03-17T08:32:21.799Z,29.97
2019-03-17T08:34:48.152Z,29.16
2019-03-17T08:37:14.504Z,28.73
2019-03-17T08:39:40.852Z,29.25
2019-03-17T08:42:07.232Z,28.95
2019-03-17T08:44:33.664Z,28.86
2019-03-17T08:47:00.433Z,29.08
2019-03-17T08:49:27.041Z,28.83
2019-03-17T08:51:53.483Z,29.28
2019-03-17T08:54:20.120Z,29.23
2019-03-17T08:56:46.452Z,29.21
2019-03-17T08:59:12.777Z,28.84
2019-03-17T09:01:39.418Z,29.08
2019-03-17T09:04:06.058Z,29.88
2019-03-17T09:06:32.702Z,29.48
2019-03-17T09:08:59.047Z,29.53
2019-03-17T09:11:25.400Z,29.85
2019-03-17T09:13:52.106Z,30.07
2019-03-17T09:16:19.483Z,30.19
2019-03-17T09:18:47.330Z,30.10
2019-03-17T09:21:13.963Z,29.85
2019-03-17T09:23:42.614Z,29.12
2019-03-17T09:26:09.390Z,30.42
2019-03-17T09:28:35.730Z,30.63
2019-03-17T09:31:04.790Z,30.19
2019-03-17T09:33:30.633Z,30.40
2019-03-17T09:35:56.941Z,30.97
2019-03-17T09:38:23.255Z,31.00
2019-03-17T09:40:49.598Z,30.47
2019-03-17T09:43:16.365Z,30.40
2019-03-17T09:45:43.136Z,30.37
2019-03-17T09:48:09.739Z,29.54
2019-03-17T09:50:36.077Z,30.13
2019-03-17T09:53:03.858Z,30.97
2019-03-17T09:55:30.471Z,30.47
2019-03-17T09:57:57.213Z,30.94
2019-03-17T10:00:23.569Z,31.17
2019-03-17T10:02:50.415Z,31.50
2019-03-17T10:05:16.798Z,30.86
2019-03-17T10:07:43.141Z,31.08
2019-03-17T10:10:19.652Z,30.90
2019-03-17T10:12:46.387Z,30.91
2019-03-17T10:15:17.843Z,31.38
2019-03-17T10:17:44.486Z,30.99
2019-03-17T10:20:17.718Z,31.30
2019-03-17T10:22:44.462Z,31.26
2019-03-17T10:25:11.957Z,31.09
2019-03-17T10:27:38.635Z,31.10
2019-03-17T10:30:10.585Z,31.00
2019-03-17T10:32:36.892Z,30.75
2019-03-17T10:35:04.543Z,30.43
2019-03-17T10:37:30.915Z,30.63
2019-03-17T10:39:57.265Z,29.35
2019-03-17T10:42:23.572Z,29.88
2019-03-17T10:44:50.262Z,30.43
2019-03-17T10:47:16.659Z,29.76
2019-03-17T10:49:43.094Z,29.68
2019-03-17T10:52:10.027Z,29.19
2019-03-17T10:54:36.363Z,29.84
2019-03-17T10:57:02.862Z,30.24
2019-03-17T10:59:29.236Z,29.97
2019-03-17T11:01:55.651Z,29.65
2019-03-17T11:04:22.031Z,29.65
2019-03-17T11:06:48.691Z,29.12
2019-03-17T11:09:24.687Z,29.45
2019-03-17T11:11:43.611Z,29.81
2019-03-17T11:14:10.244Z,29.52
2019-03-17T11:16:36.604Z,29.32
2019-03-17T11:19:02.917Z,29.75
2019-03-17T11:21:29.253Z,29.76
2019-03-17T11:23:55.869Z,29.27
2019-03-17T11:26:22.262Z,30.19
2019-03-17T11:28:48.637Z,29.66
2019-03-17T11:31:14.972Z,29.43
2019-03-17T11:33:41.666Z,29.41
2019-03-17T11:36:07.976Z,28.87
2019-03-17T11:38:34.354Z,28.24
2019-03-17T11:41:00.709Z,27.44
2019-03-17T11:43:27.367Z,24.25
2019-03-17T11:45:54.148Z,23.40
2019-03-17T11:48:21.034Z,21.16
2019-03-17T11:50:47.367Z,20.20
2019-03-17T11:53:13.732Z,20.47
2019-03-17T11:55:40.066Z,19.68
2019-03-17T11:58:06.418Z,19.38
2019-03-17T12:00:32.715Z,19.03
2019-03-17T12:02:59.644Z,18.24
2019-03-17T12:05:26.267Z,20.46
2019-03-17T12:07:53.032Z,18.68
2019-03-17T12:10:23.338Z,17.38
2019-03-17T12:12:49.752Z,16.45
2019-03-17T12:15:34.354Z,17.28
2019-03-17T12:18:00.706Z,16.31
2019-03-17T12:20:27.312Z,16.38
2019-03-17T12:22:53.762Z,18.14
2019-03-17T12:25:20.265Z,17.21
2019-03-17T12:27:46.603Z,16.48
2019-03-17T12:30:23.056Z,19.74
2019-03-17T12:32:51.214Z,22.16
2019-03-17T12:35:17.639Z,20.75
2019-03-17T12:37:44.774Z,21.28
2019-03-17T12:40:11.201Z,20.94
2019-03-17T12:42:38.789Z,20.82
2019-03-17T12:45:07.273Z,18.93
2019-03-17T12:47:37.204Z,19.45
2019-03-17T12:50:07.107Z,18.00
2019-03-17T12:52:33.482Z,17.77
2019-03-17T12:55:00.362Z,17.21
2019-03-17T12:57:26.755Z,17.46
2019-03-17T12:59:53.415Z,18.25
2019-03-17T13:02:19.789Z,17.67
2019-03-17T13:04:46.557Z,19.31
2019-03-17T13:07:12.913Z,19.33
2019-03-17T13:09:39.670Z,22.55
2019-03-17T13:12:06.124Z,22.88
2019-03-17T13:14:32.814Z,23.06
2019-03-17T13:16:59.151Z,23.69
2019-03-17T13:19:25.778Z,22.84
2019-03-17T13:21:52.426Z,21.68
2019-03-17T13:24:18.819Z,21.68
2019-03-17T13:26:45.524Z,19.94
2019-03-17T13:29:12.130Z,19.94
2019-03-17T13:31:38.972Z,20.87
2019-03-17T13:34:07.763Z,20.80
2019-03-17T13:36:36.293Z,22.39
2019-03-17T13:39:05.340Z,26.51
2019-03-17T13:41:31.671Z,25.79
2019-03-17T13:43:58.384Z,23.37
2019-03-17T13:46:27.513Z,20.62
2019-03-17T13:48:54.152Z,18.51
2019-03-17T13:51:20.785Z,17.68
2019-03-17T13:53:47.116Z,18.30
2019-03-17T13:56:13.760Z,21.75
2019-03-17T13:58:40.385Z,23.35
2019-03-17T14:01:07.028Z,22.09
2019-03-17T14:03:33.356Z,25.16
2019-03-17T14:06:00.007Z,24.31
2019-03-17T14:08:26.355Z,21.21
2019-03-17T14:10:53.075Z,21.39
2019-03-17T14:13:19.712Z,19.08
2019-03-17T14:15:46.355Z,17.50
2019-03-17T14:18:12.678Z,18.35
2019-03-17T14:20:39.314Z,18.95
2019-03-17T14:23:05.953Z,19.74
2019-03-17T14:25:36.197Z,18.55
2019-03-17T14:28:02.525Z,22.61
2019-03-17T14:30:29.505Z,26.17
2019-03-17T14:32:55.807Z,28.19
2019-03-17T14:35:23.655Z,28.81
2019-03-17T14:37:49.975Z,28.50
2019-03-17T14:40:16.746Z,26.18
2019-03-17T14:42:45.770Z,22.44
2019-03-17T14:45:14.367Z,23.44
2019-03-17T14:47:40.936Z,26.21
2019-03-17T14:50:19.067Z,25.92
2019-03-17T14:52:45.834Z,26.62
2019-03-17T14:55:12.690Z,27.35
2019-03-17T14:57:39.089Z,28.68
2019-03-17T15:00:16.794Z,31.02
2019-03-17T15:02:44.027Z,31.12
2019-03-17T15:05:10.919Z,32.43
2019-03-17T15:07:37.603Z,33.72
2019-03-17T15:10:09.703Z,34.93
2019-03-17T15:12:36.100Z,40.65
2019-03-17T15:15:17.948Z,46.71
2019-03-17T15:17:44.517Z,49.02
2019-03-17T15:20:21.155Z,54.12
2019-03-17T15:22:47.490Z,55.64
2019-03-17T15:25:15.070Z,57.85
2019-03-17T15:27:41.925Z,59.14
2019-03-17T15:30:16.144Z,62.12
2019-03-17T15:32:42.486Z,66.50
2019-03-17T15:35:11.927Z,69.42
2019-03-17T15:37:38.640Z,77.98
2019-03-17T15:40:09.693Z,81.05
2019-03-17T15:42:36.060Z,80.24
2019-03-17T15:45:06.489Z,81.15
2019-03-17T15:47:33.488Z,80.99
2019-03-17T15:49:59.955Z,79.59
2019-03-17T15:52:26.288Z,79.74
2019-03-17T15:54:52.636Z,81.05
2019-03-17T15:57:19.455Z,79.74
2019-03-17T15:59:48.473Z,80.21
2019-03-17T16:02:14.343Z,80.49
2019-03-17T16:04:40.995Z,78.63
2019-03-17T16:07:07.754Z,78.06
2019-03-17T16:09:34.350Z,76.70
2019-03-17T16:12:01.203Z,78.32
2019-03-17T16:14:27.531Z,77.40
2019-03-17T16:16:53.902Z,77.62
2019-03-17T16:19:20.310Z,77.84
2019-03-17T16:21:47.048Z,77.64
2019-03-17T16:24:13.365Z,76.43
2019-03-17T16:26:39.721Z,75.55
2019-03-17T16:29:06.076Z,77.09
2019-03-17T16:31:32.422Z,77.28
2019-03-17T16:33:59.250Z,77.34
2019-03-17T16:36:25.690Z,77.00
2019-03-17T16:38:52.223Z,76.64
2019-03-17T16:41:19.135Z,74.77
2019-03-17T16:43:46.642Z,72.42
2019-03-17T16:46:13.003Z,74.20
2019-03-17T16:48:39.526Z,72.58
2019-03-17T16:51:05.861Z,72.40
2019-03-17T16:53:32.625Z,72.09
2019-03-17T16:55:59.093Z,72.49
2019-03-17T16:58:25.483Z,72.06
2019-03-17T17:00:52.229Z,72.54
2019-03-17T17:03:19.194Z,71.87
2019-03-17T17:05:45.820Z,72.53
2019-03-17T17:08:12.331Z,72.27
2019-03-17T17:10:39.184Z,72.78
2019-03-17T17:13:05.895Z,72.50
2019-03-17T17:15:33.985Z,73.12
2019-03-17T17:18:01.264Z,72.19
2019-03-17T17:20:37.750Z,72.31
2019-03-17T17:23:04.980Z,70.96
2019-03-17T17:25:31.921Z,69.31
2019-03-17T17:27:58.699Z,69.84
2019-03-17T17:30:25.511Z,69.90
2019-03-17T17:32:52.453Z,69.94
2019-03-17T17:35:19.189Z,70.20
2019-03-17T17:37:45.572Z,67.98
2019-03-17T17:40:17.502Z,68.23
2019-03-17T17:42:45.007Z,67.27
2019-03-17T17:45:15.601Z,67.98
2019-03-17T17:47:42.314Z,67.21
2019-03-17T17:50:12.815Z,67.57
2019-03-17T17:52:39.512Z,66.95
2019-03-17T17:55:07.467Z,67.17
2019-03-17T17:57:33.798Z,66.90
2019-03-17T18:00:00.364Z,66.52
2019-03-17T18:02:26.826Z,66.36
2019-03-17T18:04:53.587Z,66.45
2019-03-17T18:07:19.967Z,65.88
2019-03-17T18:09:46.670Z,65.91
2019-03-17T18:12:20.940Z,66.15
2019-03-17T18:14:41.600Z,66.36
2019-03-17T18:17:07.940Z,66.60
2019-03-17T18:19:34.618Z,66.73
2019-03-17T18:22:01.321Z,68.02
2019-03-17T18:24:27.634Z,68.49
2019-03-17T18:26:54.009Z,68.78
2019-03-17T18:29:20.701Z,68.63
2019-03-17T18:31:47.057Z,69.01
2019-03-17T18:34:13.391Z,68.88
2019-03-17T18:36:39.880Z,68.32
2019-03-17T18:39:06.232Z,67.98
2019-03-17T18:41:32.562Z,67.51
2019-03-17T18:43:58.954Z,66.99
2019-03-17T18:46:25.310Z,66.52
2019-03-17T18:48:52.678Z,66.39
2019-03-17T18:51:19.144Z,66.00
2019-03-17T18:53:45.885Z,65.23
2019-03-17T18:56:12.237Z,64.45
2019-03-17T18:58:38.937Z,64.49
2019-03-17T19:01:05.285Z,64.69
2019-03-17T19:03:32.816Z,64.63
2019-03-17T19:05:59.201Z,63.96
2019-03-17T19:08:25.928Z,63.71
2019-03-17T19:10:52.260Z,63.76
2019-03-17T19:13:18.851Z,63.46
2019-03-17T19:15:45.512Z,63.62
2019-03-17T19:18:12.154Z,63.53
2019-03-17T19:20:38.786Z,63.40
2019-03-17T19:23:05.140Z,63.50
2019-03-17T19:25:31.928Z,63.14
2019-03-17T19:27:58.672Z,62.80
2019-03-17T19:30:28.101Z,62.89
2019-03-17T19:32:54.834Z,63.13
2019-03-17T19:35:21.505Z,62.28
2019-03-17T19:37:48.445Z,62.10
2019-03-17T19:40:17.259Z,61.99
2019-03-17T19:42:43.566Z,61.85
2019-03-17T19:45:11.517Z,62.26
2019-03-17T19:47:38.144Z,61.97
2019-03-17T19:50:09.127Z,61.85
2019-03-17T19:52:35.543Z,62.06
2019-03-17T19:55:03.735Z,61.69
2019-03-17T19:57:30.209Z,61.96
2019-03-17T19:59:56.580Z,61.86
2019-03-17T20:02:23.010Z,62.08
2019-03-17T20:04:49.419Z,62.41
2019-03-17T20:07:15.863Z,62.42
2019-03-17T20:09:42.425Z,62.04
2019-03-17T20:12:08.791Z,62.31
2019-03-17T20:14:35.584Z,62.46
2019-03-17T20:17:02.363Z,62.32
2019-03-17T20:19:29.091Z,61.98
2019-03-17T20:21:55.492Z,61.41
2019-03-17T20:24:22.239Z,61.58
2019-03-17T20:26:48.591Z,61.05
2019-03-17T20:29:14.908Z,60.99
2019-03-17T20:31:41.656Z,61.18
2019-03-17T20:34:08.022Z,61.15
2019-03-17T20:36:34.357Z,61.41
2019-03-17T20:39:00.669Z,61.15
2019-03-17T20:41:28.719Z,60.39
2019-03-17T20:43:56.315Z,60.97
2019-03-17T20:46:24.025Z,60.75
2019-03-17T20:48:50.430Z,60.81
2019-03-17T20:51:16.775Z,60.94
2019-03-17T20:53:43.148Z,61.50
2019-03-17T20:56:09.876Z,60.96
2019-03-17T20:58:36.258Z,61.46
2019-03-17T21:01:03.075Z,61.51
2019-03-17T21:03:29.477Z,61.25
2019-03-17T21:05:56.104Z,61.40
2019-03-17T21:08:22.412Z,61.32
2019-03-17T21:10:49.973Z,61.78
2019-03-17T21:13:16.697Z,61.71
2019-03-17T21:15:43.129Z,61.54
2019-03-17T21:18:09.822Z,61.24
2019-03-17T21:20:36.477Z,61.06
2019-03-17T21:23:03.295Z,60.97
2019-03-17T21:25:29.936Z,61.04
2019-03-17T21:27:56.577Z,61.05
2019-03-17T21:30:29.207Z,60.61
2019-03-17T21:32:55.637Z,60.09
2019-03-17T21:35:22.573Z,60.26
2019-03-17T21:37:49.273Z,60.04
2019-03-17T21:40:15.612Z,60.48
2019-03-17T21:42:42.341Z,60.54
2019-03-17T21:45:11.060Z,60.45
2019-03-17T21:47:42.467Z,60.76
2019-03-17T21:50:18.104Z,60.34
2019-03-17T21:52:44.764Z,59.94
2019-03-17T21:55:12.752Z,60.61
2019-03-17T21:57:39.121Z,60.08
2019-03-17T22:00:17.165Z,60.23
2019-03-17T22:02:43.867Z,60.00
2019-03-17T22:05:14.098Z,60.01
2019-03-17T22:07:49.281Z,59.82
2019-03-17T22:10:14.165Z,59.96
2019-03-17T22:12:40.477Z,60.40
2019-03-17T22:15:13.698Z,61.12
2019-03-17T22:17:40.348Z,60.70
2019-03-17T22:20:10.414Z,61.10
2019-03-17T22:22:37.117Z,61.48
2019-03-17T22:25:07.151Z,61.68
2019-03-17T22:27:33.582Z,62.14
2019-03-17T22:30:00.344Z,61.88
2019-03-17T22:32:26.744Z,62.17
2019-03-17T22:34:53.575Z,62.50
2019-03-17T22:37:20.212Z,62.44
2019-03-17T22:39:46.533Z,62.29
2019-03-17T22:42:13.179Z,62.53
2019-03-17T22:44:39.514Z,62.59
2019-03-17T22:47:06.084Z,62.33
2019-03-17T22:49:32.415Z,62.46
2019-03-17T22:51:58.747Z,62.57
2019-03-17T22:54:25.084Z,62.88
2019-03-17T22:56:51.420Z,62.69
2019-03-17T22:59:17.750Z,63.15
2019-03-17T23:01:44.093Z,62.93
2019-03-17T23:04:10.490Z,63.12
2019-03-17T23:06:37.209Z,63.14
2019-03-17T23:09:05.958Z,63.06
2019-03-17T23:11:32.749Z,63.13
2019-03-17T23:13:59.113Z,63.20
2019-03-17T23:16:25.495Z,63.33
2019-03-17T23:18:51.863Z,63.25
2019-03-17T23:21:18.461Z,63.21
2019-03-17T23:23:45.106Z,63.14
2019-03-17T23:26:11.546Z,63.30
2019-03-17T23:28:38.180Z,63.64
2019-03-17T23:31:04.808Z,63.60
2019-03-17T23:33:32.746Z,64.11
2019-03-17T23:35:59.419Z,64.15
2019-03-17T23:38:25.791Z,63.90
2019-03-17T23:40:52.131Z,63.52
2019-03-17T23:43:18.520Z,63.36
2019-03-17T23:45:45.161Z,63.55
2019-03-17T23:48:11.797Z,63.40
2019-03-17T23:50:38.114Z,63.68
2019-03-17T23:53:05.389Z,64.54
2019-03-17T23:55:31.711Z,64.50
2019-03-17T23:57:58.345Z,63.73
